createdAt,value
2023-07-21T00:01:56.538Z,17.79
2023-07-21T00:04:34.369Z,18.03
2023-07-21T00:07:08.178Z,18.36
2023-07-21T00:09:42.993Z,18.70
2023-07-21T00:12:15.941Z,19.01
2023-07-21T00:14:46.811Z,19.46
2023-07-21T00:17:17.615Z,19.92
2023-07-21T00:19:48.258Z,20.28
2023-07-21T00:22:18.387Z,20.46
2023-07-21T00:24:52.802Z,20.79
2023-07-21T00:27:34.652Z,21.00
2023-07-21T00:30:10.101Z,21.13
2023-07-21T00:32:45.888Z,21.20
2023-07-21T00:35:16.462Z,21.32
2023-07-21T00:37:49.640Z,21.36
2023-07-21T00:40:23.287Z,21.47
2023-07-21T00:42:53.268Z,21.51
2023-07-21T00:45:25.426Z,21.56
2023-07-21T00:47:59.894Z,21.73
2023-07-21T00:50:35.437Z,21.72
2023-07-21T00:53:07.508Z,21.73
2023-07-21T00:55:40.141Z,21.55
2023-07-21T00:58:14.064Z,21.43
2023-07-21T01:00:49.533Z,21.40
2023-07-21T01:03:21.615Z,21.16
2023-07-21T01:05:56.048Z,20.91
2023-07-21T01:08:27.104Z,20.52
2023-07-21T01:10:58.941Z,20.26
2023-07-21T01:13:30.432Z,19.96
2023-07-21T01:16:01.915Z,19.98
2023-07-21T01:18:38.341Z,20.10
2023-07-21T01:21:10.686Z,20.26
2023-07-21T01:23:54.016Z,20.50
2023-07-21T01:26:25.278Z,20.48
2023-07-21T01:28:56.117Z,20.45
2023-07-21T01:31:27.030Z,20.41
2023-07-21T01:34:00.727Z,20.27
2023-07-21T01:36:37.559Z,20.18
2023-07-21T01:39:11.779Z,20.31
2023-07-21T01:41:47.422Z,20.09
2023-07-21T01:44:24.452Z,20.41
2023-07-21T01:47:05.278Z,20.67
2023-07-21T01:49:37.225Z,20.77
2023-07-21T01:52:08.076Z,20.84
2023-07-21T01:54:50.630Z,20.83
2023-07-21T01:57:27.230Z,20.74
2023-07-21T01:59:59.993Z,20.62
2023-07-21T02:02:31.613Z,20.41
2023-07-21T02:05:02.942Z,20.26
2023-07-21T02:07:37.084Z,20.35
2023-07-21T02:10:11.066Z,20.57
2023-07-21T02:12:42.414Z,20.63
2023-07-21T02:15:17.598Z,20.46
2023-07-21T02:17:50.529Z,20.40
2023-07-21T02:20:21.296Z,20.37
2023-07-21T02:22:54.914Z,20.31
2023-07-21T02:25:32.506Z,20.31
2023-07-21T02:28:05.554Z,20.23
2023-07-21T02:30:39.189Z,20.08
2023-07-21T02:33:12.748Z,20.02
2023-07-21T02:35:43.248Z,19.97
2023-07-21T02:38:13.739Z,19.82
2023-07-21T02:40:48.988Z,19.75
2023-07-21T02:43:20.208Z,19.73
2023-07-21T02:45:53.959Z,19.35
2023-07-21T02:48:24.916Z,19.24
2023-07-21T02:51:01.240Z,19.09
2023-07-21T02:53:36.793Z,19.02
2023-07-21T02:56:07.712Z,19.02
2023-07-21T02:58:57.995Z,18.90
2023-07-21T03:01:29.074Z,18.90
2023-07-21T03:04:00.038Z,18.79
2023-07-21T03:06:32.602Z,18.76
2023-07-21T03:09:03.257Z,18.71
2023-07-21T03:11:33.878Z,18.77
2023-07-21T03:14:18.311Z,18.77
2023-07-21T03:16:52.823Z,18.67
2023-07-21T03:19:28.862Z,18.45
2023-07-21T03:22:00.548Z,18.46
2023-07-21T03:24:33.922Z,18.49
2023-07-21T03:27:06.144Z,18.18
2023-07-21T03:29:40.390Z,17.95
2023-07-21T03:32:12.636Z,17.75
2023-07-21T03:34:42.972Z,17.65
2023-07-21T03:37:13.406Z,17.52
2023-07-21T03:39:47.338Z,17.53
2023-07-21T03:42:17.838Z,17.44
2023-07-21T03:44:51.993Z,17.35
2023-07-21T03:47:22.482Z,17.29
2023-07-21T03:50:00.742Z,17.23
2023-07-21T03:52:32.462Z,17.21
2023-07-21T03:55:03.544Z,17.26
2023-07-21T03:57:34.851Z,17.23
2023-07-21T04:00:07.920Z,17.17
2023-07-21T04:02:47.804Z,17.18
2023-07-21T04:05:22.975Z,17.14
2023-07-21T04:08:03.361Z,17.14
2023-07-21T04:10:36.733Z,17.19
2023-07-21T04:13:17.629Z,17.29
2023-07-21T04:15:59.744Z,17.37
2023-07-21T04:18:30.445Z,17.37
2023-07-21T04:21:03.317Z,17.34
2023-07-21T04:23:37.218Z,17.27
2023-07-21T04:26:09.361Z,17.18
2023-07-21T04:28:43.905Z,17.11
2023-07-21T04:31:14.546Z,17.03
2023-07-21T04:33:59.794Z,16.98
2023-07-21T04:36:33.504Z,17.03
2023-07-21T04:39:07.001Z,17.11
2023-07-21T04:41:38.072Z,17.13
2023-07-21T04:44:10.500Z,17.10
2023-07-21T04:46:40.798Z,17.05
2023-07-21T04:49:15.588Z,16.97
2023-07-21T04:51:49.652Z,16.88
2023-07-21T04:54:23.016Z,16.84
2023-07-21T04:56:54.845Z,16.77
2023-07-21T04:59:28.366Z,16.82
2023-07-21T05:01:59.336Z,16.87
2023-07-21T05:04:30.512Z,16.92
2023-07-21T05:07:03.426Z,16.99
2023-07-21T05:09:36.250Z,17.07
2023-07-21T05:12:13.109Z,16.85
2023-07-21T05:17:42.461Z,16.38
2023-07-21T05:20:31.258Z,16.18
2023-07-21T05:23:24.007Z,16.14
2023-07-21T05:26:03.142Z,16.17
2023-07-21T05:28:37.951Z,16.28
2023-07-21T05:31:09.807Z,16.37
2023-07-21T05:33:57.443Z,16.26
2023-07-21T05:36:31.768Z,16.23
2023-07-21T05:39:02.111Z,16.10
2023-07-21T05:41:33.768Z,16.04
2023-07-21T05:44:04.044Z,15.91
2023-07-21T05:46:36.492Z,15.85
2023-07-21T05:49:10.098Z,15.76
2023-07-21T05:51:41.891Z,15.72
2023-07-21T05:54:33.054Z,15.62
2023-07-21T05:57:23.791Z,15.58
2023-07-21T05:59:54.586Z,15.54
2023-07-21T06:02:25.367Z,15.66
2023-07-21T06:05:00.050Z,15.61
2023-07-21T06:07:48.863Z,15.61
2023-07-21T06:10:45.072Z,15.62
2023-07-21T06:13:39.012Z,15.60
2023-07-21T06:16:35.481Z,15.52
2023-07-21T06:19:07.141Z,15.51
2023-07-21T06:21:37.833Z,15.46
2023-07-21T06:24:08.246Z,15.36
2023-07-21T06:26:41.039Z,15.29
2023-07-21T06:29:13.761Z,15.24
2023-07-21T06:31:47.378Z,15.24
2023-07-21T06:34:39.703Z,15.18
2023-07-21T06:37:27.249Z,15.08
2023-07-21T06:40:13.603Z,15.00
2023-07-21T06:42:59.911Z,15.06
2023-07-21T06:45:53.460Z,15.13
2023-07-21T06:48:40.774Z,15.13
2023-07-21T06:51:18.741Z,14.98
2023-07-21T06:53:53.740Z,14.76
2023-07-21T06:56:30.981Z,14.64
2023-07-21T06:59:01.926Z,14.61
2023-07-21T07:01:32.419Z,14.61
2023-07-21T07:04:02.914Z,14.62
2023-07-21T07:06:33.231Z,14.66
2023-07-21T07:09:03.721Z,14.73
2023-07-21T07:11:33.964Z,14.83
2023-07-21T07:14:04.381Z,14.82
2023-07-21T07:16:34.616Z,14.89
2023-07-21T07:19:06.869Z,14.93
2023-07-21T07:21:39.498Z,15.04
2023-07-21T07:24:14.904Z,15.09
2023-07-21T07:26:49.850Z,15.09
2023-07-21T07:29:24.172Z,15.00
2023-07-21T07:31:54.562Z,14.93
2023-07-21T07:34:25.032Z,14.81
2023-07-21T07:36:57.075Z,14.62
2023-07-21T07:39:32.685Z,14.54
2023-07-21T07:42:12.028Z,14.57
2023-07-21T07:44:47.849Z,14.71
2023-07-21T07:47:18.551Z,14.88
2023-07-21T07:49:49.110Z,14.99
2023-07-21T07:52:20.754Z,15.06
2023-07-21T07:54:52.352Z,14.96
2023-07-21T07:57:32.667Z,14.75
2023-07-21T08:00:17.096Z,14.82
2023-07-21T08:03:07.410Z,14.96
2023-07-21T08:21:19.631Z,14.81
2023-07-21T08:25:27.622Z,14.63
2023-07-21T08:35:43.396Z,14.73
2023-07-21T08:38:14.361Z,14.52
2023-07-21T08:41:01.531Z,14.40
2023-07-21T08:44:15.898Z,14.41
2023-07-21T08:47:17.250Z,14.44
2023-07-21T08:50:05.941Z,14.36
2023-07-21T08:52:52.722Z,14.18
2023-07-21T08:55:52.547Z,14.16
2023-07-21T08:58:37.373Z,14.28
2023-07-21T09:04:24.311Z,14.29
2023-07-21T09:07:08.779Z,14.28
2023-07-21T09:09:39.625Z,14.31
2023-07-21T09:12:21.498Z,14.43
2023-07-21T09:14:54.593Z,14.54
2023-07-21T09:17:28.108Z,14.71
2023-07-21T09:19:58.527Z,14.64
2023-07-21T09:22:35.684Z,14.45
2023-07-21T09:25:10.888Z,14.24
2023-07-21T09:28:14.701Z,14.02
2023-07-21T09:31:38.089Z,13.92
2023-07-21T09:34:37.950Z,14.16
2023-07-21T09:37:12.291Z,14.23
2023-07-21T09:39:53.502Z,14.32
2023-07-21T09:42:30.270Z,14.47
2023-07-21T09:45:07.136Z,14.52
2023-07-21T09:47:50.996Z,14.50
2023-07-21T09:50:25.431Z,14.30
2023-07-21T09:52:57.651Z,14.20
2023-07-21T09:55:43.705Z,14.14
2023-07-21T09:58:19.589Z,14.08
2023-07-21T10:00:55.082Z,14.11
2023-07-21T10:03:29.229Z,14.15
2023-07-21T10:06:04.327Z,14.13
2023-07-21T10:08:37.493Z,14.18
2023-07-21T10:11:12.094Z,14.24
2023-07-21T10:13:50.861Z,14.25
2023-07-21T10:16:24.429Z,14.22
2023-07-21T10:19:14.804Z,14.30
2023-07-21T10:21:56.150Z,14.32
2023-07-21T10:24:33.607Z,14.31
2023-07-21T10:27:08.390Z,14.28
2023-07-21T10:29:39.924Z,14.40
2023-07-21T10:32:13.307Z,14.35
2023-07-21T10:34:46.814Z,14.35
2023-07-21T10:37:26.770Z,14.45
2023-07-21T10:48:35.149Z,14.72
2023-07-21T10:51:29.368Z,14.82
2023-07-21T10:54:07.293Z,15.03
2023-07-21T10:56:45.157Z,15.17
2023-07-21T10:59:22.889Z,15.37
2023-07-21T11:01:58.974Z,15.48
2023-07-21T11:04:29.425Z,15.66
2023-07-21T11:07:01.480Z,15.70
2023-07-21T11:09:36.619Z,15.87
2023-07-21T11:12:11.126Z,16.09
2023-07-21T11:14:41.995Z,16.37
2023-07-21T11:17:12.631Z,16.54
2023-07-21T11:19:43.136Z,16.78
2023-07-21T11:22:13.497Z,16.89
2023-07-21T11:24:47.353Z,17.01
2023-07-21T11:27:18.931Z,17.14
2023-07-21T11:29:49.184Z,17.26
2023-07-21T11:32:25.218Z,17.70
2023-07-21T11:34:59.793Z,17.96
2023-07-21T11:37:42.298Z,18.01
2023-07-21T11:40:21.109Z,18.19
2023-07-21T11:42:52.232Z,18.46
2023-07-21T11:45:39.615Z,19.05
2023-07-21T11:48:21.152Z,19.39
2023-07-21T11:50:52.663Z,19.56
2023-07-21T11:53:27.435Z,19.55
2023-07-21T11:55:57.825Z,19.84
2023-07-21T11:58:29.006Z,19.71
2023-07-21T12:00:59.229Z,20.08
2023-07-21T12:03:29.716Z,20.28
2023-07-21T12:06:00.098Z,20.31
2023-07-21T12:08:31.813Z,20.70
2023-07-21T12:11:06.833Z,21.01
2023-07-21T12:13:37.625Z,21.16
2023-07-21T12:16:09.518Z,21.52
2023-07-21T12:18:40.877Z,21.88
2023-07-21T12:21:11.724Z,21.94
2023-07-21T12:23:42.135Z,22.36
2023-07-21T12:26:12.489Z,22.77
2023-07-21T12:28:47.397Z,23.15
2023-07-21T12:31:18.929Z,23.69
2023-07-21T12:33:50.863Z,23.94
2023-07-21T12:36:22.160Z,24.20
2023-07-21T12:38:53.637Z,24.27
2023-07-21T12:41:24.267Z,24.53
2023-07-21T12:43:55.037Z,24.51
2023-07-21T12:46:25.720Z,25.07
2023-07-21T12:48:56.538Z,25.00
2023-07-21T12:51:26.890Z,25.30
2023-07-21T12:53:57.475Z,25.88
2023-07-21T12:56:28.318Z,26.82
2023-07-21T12:58:59.264Z,26.96
2023-07-21T13:01:29.579Z,27.41
2023-07-21T13:04:00.320Z,27.27
2023-07-21T13:06:32.634Z,27.38
2023-07-21T13:09:04.694Z,27.49
2023-07-21T13:11:35.192Z,27.86
2023-07-21T13:14:06.087Z,28.44
2023-07-21T13:16:36.645Z,28.72
2023-07-21T13:19:07.903Z,28.05
2023-07-21T13:21:40.445Z,28.82
2023-07-21T13:24:10.813Z,29.00
2023-07-21T13:26:42.815Z,29.04
2023-07-21T13:29:14.272Z,29.45
2023-07-21T13:31:44.783Z,29.99
2023-07-21T13:34:15.187Z,29.22
2023-07-21T13:36:47.171Z,29.01
2023-07-21T13:39:18.382Z,28.55
2023-07-21T13:41:49.965Z,28.56
2023-07-21T13:44:20.500Z,29.58
2023-07-21T13:46:50.879Z,29.86
2023-07-21T13:49:24.311Z,29.85
2023-07-21T13:51:57.689Z,30.22
2023-07-21T13:54:28.368Z,30.74
2023-07-21T13:57:00.183Z,31.30
2023-07-21T13:59:30.722Z,31.03
2023-07-21T14:02:01.277Z,31.19
2023-07-21T14:04:32.452Z,31.23
2023-07-21T14:07:03.703Z,30.99
2023-07-21T14:09:34.578Z,30.94
2023-07-21T14:12:04.964Z,31.37
2023-07-21T14:14:39.065Z,31.08
2023-07-21T14:17:10.743Z,31.72
2023-07-21T14:19:42.713Z,31.34
2023-07-21T14:22:13.106Z,31.77
2023-07-21T14:24:43.689Z,32.47
2023-07-21T14:27:14.140Z,32.07
2023-07-21T14:29:53.660Z,32.03
2023-07-21T14:32:24.841Z,32.02
2023-07-21T14:34:55.369Z,32.98
2023-07-21T14:37:26.852Z,32.84
2023-07-21T14:39:58.152Z,33.15
2023-07-21T14:42:29.215Z,32.91
2023-07-21T14:45:02.675Z,33.37
2023-07-21T14:47:42.099Z,32.69
2023-07-21T14:50:13.564Z,33.76
2023-07-21T14:52:44.247Z,32.74
2023-07-21T14:55:15.548Z,33.36
2023-07-21T14:57:46.626Z,34.07
2023-07-21T15:00:22.790Z,34.00
2023-07-21T15:02:55.335Z,34.65
2023-07-21T15:05:25.580Z,34.45
2023-07-21T15:07:56.381Z,34.39
2023-07-21T15:10:27.069Z,34.65
2023-07-21T15:12:58.002Z,35.09
2023-07-21T15:15:28.028Z,35.55
2023-07-21T15:17:59.627Z,35.39
2023-07-21T15:20:30.874Z,36.17
2023-07-21T15:23:01.755Z,36.79
2023-07-21T15:25:32.542Z,37.36
2023-07-21T15:28:03.173Z,36.57
2023-07-21T15:30:33.535Z,36.99
2023-07-21T15:33:06.188Z,37.09
2023-07-21T15:35:46.861Z,36.76
2023-07-21T15:38:20.645Z,36.38
2023-07-21T15:40:50.675Z,36.91
2023-07-21T15:43:21.292Z,36.91
2023-07-21T15:45:53.969Z,36.74
2023-07-21T15:48:24.920Z,37.49
2023-07-21T15:50:55.335Z,37.72
2023-07-21T15:53:25.671Z,37.57
2023-07-21T15:56:05.841Z,37.42
2023-07-21T15:58:45.527Z,37.42
2023-07-21T16:01:18.938Z,37.29
2023-07-21T16:04:01.566Z,37.74
2023-07-21T16:06:32.976Z,38.11
2023-07-21T16:09:06.424Z,38.56
2023-07-21T16:11:39.160Z,38.83
2023-07-21T16:14:09.625Z,39.18
2023-07-21T16:16:39.760Z,39.42
2023-07-21T16:19:18.071Z,39.16
2023-07-21T16:21:51.143Z,39.00
2023-07-21T16:24:24.152Z,38.26
2023-07-21T16:26:54.819Z,38.25
2023-07-21T16:29:28.080Z,38.50
2023-07-21T16:31:58.188Z,37.67
2023-07-21T16:34:35.540Z,38.45
2023-07-21T16:37:08.417Z,37.46
2023-07-21T16:39:46.966Z,38.67
2023-07-21T16:42:17.513Z,39.03
2023-07-21T16:44:47.946Z,38.42
2023-07-21T16:47:18.325Z,38.78
2023-07-21T16:49:48.745Z,38.03
2023-07-21T16:52:21.767Z,37.68
2023-07-21T16:54:58.317Z,37.96
2023-07-21T16:57:30.139Z,38.67
2023-07-21T17:00:13.545Z,38.95
2023-07-21T17:02:44.069Z,39.13
2023-07-21T17:05:30.148Z,38.30
2023-07-21T17:08:12.993Z,37.49
2023-07-21T17:10:46.443Z,36.06
2023-07-21T17:13:19.862Z,36.33
2023-07-21T17:15:53.254Z,35.83
2023-07-21T17:18:34.137Z,34.93
2023-07-21T17:21:05.553Z,35.10
2023-07-21T17:23:38.892Z,35.21
2023-07-21T17:26:10.063Z,35.82
2023-07-21T17:28:43.393Z,36.17
2023-07-21T17:31:17.042Z,34.87
2023-07-21T17:33:52.543Z,35.45
2023-07-21T17:36:22.864Z,35.57
2023-07-21T17:38:56.726Z,35.64
2023-07-21T17:41:27.519Z,36.38
2023-07-21T17:43:59.636Z,35.36
2023-07-21T17:46:30.454Z,35.19
2023-07-21T17:51:53.612Z,33.99
2023-07-21T17:54:24.014Z,34.04
2023-07-21T17:56:54.588Z,33.97
2023-07-21T17:59:24.908Z,33.55
2023-07-21T18:01:55.156Z,33.07
2023-07-21T18:04:25.608Z,32.99
2023-07-21T18:06:56.034Z,33.05
2023-07-21T18:09:27.578Z,32.79
2023-07-21T18:11:58.573Z,33.17
2023-07-21T18:14:28.965Z,32.76
2023-07-21T18:16:59.208Z,32.84
2023-07-21T18:19:29.480Z,33.14
2023-07-21T18:21:59.716Z,33.03
2023-07-21T18:24:30.146Z,33.20
2023-07-21T18:27:00.669Z,33.17
2023-07-21T18:29:31.171Z,33.71
2023-07-21T18:32:04.107Z,33.63
2023-07-21T18:34:34.751Z,33.35
2023-07-21T18:37:05.283Z,32.64
2023-07-21T18:39:35.647Z,32.68
2023-07-21T18:42:06.252Z,33.12
2023-07-21T18:44:36.663Z,33.53
2023-07-21T18:47:07.336Z,33.69
2023-07-21T18:49:37.643Z,34.01
2023-07-21T18:52:08.313Z,33.75
2023-07-21T18:54:38.782Z,34.32
2023-07-21T18:57:09.162Z,33.66
2023-07-21T18:59:39.559Z,32.98
2023-07-21T19:02:09.903Z,32.66
2023-07-21T19:04:43.047Z,32.75
2023-07-21T19:07:14.212Z,32.33
2023-07-21T19:09:44.501Z,31.91
2023-07-21T19:12:14.452Z,32.21
2023-07-21T19:14:47.955Z,31.81
2023-07-21T19:17:21.376Z,31.55
2023-07-21T19:19:53.960Z,31.13
2023-07-21T19:22:24.409Z,30.99
2023-07-21T19:24:54.545Z,30.95
2023-07-21T19:27:24.890Z,30.76
2023-07-21T19:29:55.646Z,31.21
2023-07-21T19:32:26.425Z,31.42
2023-07-21T19:34:56.895Z,31.92
2023-07-21T19:37:27.324Z,31.70
2023-07-21T19:39:58.039Z,30.73
2023-07-21T19:42:29.175Z,30.32
2023-07-21T19:44:59.702Z,30.36
2023-07-21T19:47:31.027Z,31.02
2023-07-21T19:50:01.934Z,31.09
2023-07-21T19:52:32.204Z,31.36
2023-07-21T19:55:03.472Z,30.74
2023-07-21T19:57:36.611Z,30.25
2023-07-21T20:00:07.800Z,30.24
2023-07-21T20:02:39.026Z,30.16
2023-07-21T20:05:11.047Z,29.08
2023-07-21T20:07:41.389Z,29.10
2023-07-21T20:10:12.697Z,28.90
2023-07-21T20:12:54.988Z,27.84
2023-07-21T20:15:25.904Z,27.59
2023-07-21T20:17:56.291Z,27.21
2023-07-21T20:20:26.979Z,26.89
2023-07-21T20:22:57.524Z,26.67
2023-07-21T20:25:27.970Z,26.49
2023-07-21T20:27:58.305Z,26.29
2023-07-21T20:30:28.964Z,26.07
2023-07-21T20:33:02.380Z,25.85
2023-07-21T20:35:32.860Z,25.56
2023-07-21T20:38:03.929Z,25.33
2023-07-21T20:44:15.901Z,24.93
2023-07-21T20:46:49.558Z,24.78
2023-07-21T20:49:19.834Z,24.55
2023-07-21T20:51:52.868Z,24.51
2023-07-21T20:54:26.487Z,24.28
2023-07-21T20:56:57.042Z,24.04
2023-07-21T20:59:36.623Z,23.82
2023-07-21T21:02:10.196Z,23.68
2023-07-21T21:04:44.104Z,23.56
2023-07-21T21:07:15.510Z,23.51
2023-07-21T21:09:48.611Z,23.34
2023-07-21T21:12:19.542Z,23.22
2023-07-21T21:14:52.985Z,23.06
2023-07-21T21:17:26.361Z,22.99
2023-07-21T21:19:57.146Z,22.83
2023-07-21T21:22:28.988Z,22.76
2023-07-21T21:24:59.292Z,22.69
2023-07-21T21:27:32.521Z,22.71
2023-07-21T21:30:03.226Z,22.69
2023-07-21T21:32:36.514Z,22.62
2023-07-21T21:35:07.309Z,22.53
2023-07-21T21:37:40.341Z,22.49
2023-07-21T21:40:13.305Z,22.44
2023-07-21T21:42:46.590Z,22.28
2023-07-21T21:45:19.960Z,22.04
2023-07-21T21:47:50.741Z,21.80
2023-07-21T21:50:20.999Z,21.58
2023-07-21T21:52:51.417Z,21.42
2023-07-21T21:55:24.164Z,21.36
2023-07-21T21:57:54.868Z,21.28
2023-07-21T22:00:25.176Z,21.35
2023-07-21T22:02:55.849Z,21.30
2023-07-21T22:05:26.531Z,21.26
2023-07-21T22:07:56.887Z,21.33
2023-07-21T22:10:29.555Z,21.25
2023-07-21T22:13:02.760Z,21.17
2023-07-21T22:15:33.243Z,21.05
2023-07-21T22:18:04.047Z,21.03
2023-07-21T22:20:35.014Z,20.94
2023-07-21T22:23:05.490Z,20.90
2023-07-21T22:25:36.038Z,20.89
2023-07-21T22:28:09.402Z,20.91
2023-07-21T22:30:43.088Z,20.95
2023-07-21T22:33:13.919Z,20.92
2023-07-21T22:35:46.908Z,20.78
2023-07-21T22:38:20.764Z,20.73
2023-07-21T22:40:54.240Z,20.80
2023-07-21T22:43:24.717Z,20.78
2023-07-21T22:46:01.463Z,20.70
2023-07-21T22:48:32.899Z,20.69
2023-07-21T22:51:13.817Z,20.59
2023-07-21T22:53:44.237Z,20.50
2023-07-21T22:56:14.826Z,20.52
2023-07-21T22:58:51.165Z,20.63
2023-07-21T23:01:21.892Z,20.75
2023-07-21T23:03:52.756Z,20.55
2023-07-21T23:06:24.488Z,20.32
2023-07-21T23:08:55.178Z,20.38
2023-07-21T23:11:26.159Z,20.31
2023-07-21T23:13:57.388Z,20.29
2023-07-21T23:16:33.117Z,20.35
2023-07-21T23:19:09.850Z,20.24
2023-07-21T23:21:40.225Z,20.37
2023-07-21T23:24:12.033Z,20.45
2023-07-21T23:26:44.096Z,20.37
2023-07-21T23:29:14.842Z,20.33
2023-07-21T23:31:50.932Z,20.27
2023-07-21T23:34:21.510Z,20.46
2023-07-21T23:36:57.749Z,20.56
2023-07-21T23:39:28.617Z,20.77
2023-07-21T23:42:02.248Z,20.74
2023-07-21T23:44:38.090Z,20.82
2023-07-21T23:47:11.538Z,20.90
2023-07-21T23:49:43.199Z,20.94
2023-07-21T23:52:16.428Z,20.94
2023-07-21T23:54:54.142Z,21.13
2023-07-21T23:57:24.598Z,21.17
2023-07-21T23:59:55.084Z,21.10
